sensor_id;sensor_type;location;lat;lon;timestamp;P1;durP1;ratioP1;P2;durP2;ratioP2
23990;SDS011;12205;50.600;4.608;2023-07-30T00:00:54;6.22;;;0.80;;
23990;SDS011;12205;50.600;4.608;2023-07-30T00:03:23;7.18;;;0.90;;
23990;SDS011;12205;50.600;4.608;2023-07-30T00:05:53;5.43;;;0.82;;
23990;SDS011;12205;50.600;4.608;2023-07-30T00:08:21;11.17;;;1.00;;
23990;SDS011;12205;50.600;4.608;2023-07-30T00:10:49;10.25;;;1.30;;
23990;SDS011;12205;50.600;4.608;2023-07-30T00:13:16;5.53;;;0.80;;
23990;SDS011;12205;50.600;4.608;2023-07-30T00:15:45;6.13;;;1.00;;
23990;SDS011;12205;50.600;4.608;2023-07-30T00:18:12;6.55;;;0.90;;
23990;SDS011;12205;50.600;4.608;2023-07-30T00:20:41;13.00;;;1.50;;
23990;SDS011;12205;50.600;4.608;2023-07-30T00:23:08;6.63;;;1.15;;
23990;SDS011;12205;50.600;4.608;2023-07-30T00:25:35;9.15;;;1.20;;
23990;SDS011;12205;50.600;4.608;2023-07-30T00:28:03;9.57;;;1.38;;
23990;SDS011;12205;50.600;4.608;2023-07-30T00:30:30;10.75;;;1.42;;
23990;SDS011;12205;50.600;4.608;2023-07-30T00:32:57;14.23;;;1.45;;
23990;SDS011;12205;50.600;4.608;2023-07-30T00:35:24;8.88;;;1.02;;
23990;SDS011;12205;50.600;4.608;2023-07-30T00:37:53;9.20;;;1.05;;
23990;SDS011;12205;50.600;4.608;2023-07-30T00:40:20;7.82;;;0.90;;
23990;SDS011;12205;50.600;4.608;2023-07-30T00:42:47;9.18;;;0.70;;
23990;SDS011;12205;50.600;4.608;2023-07-30T00:45:14;9.25;;;1.00;;
23990;SDS011;12205;50.600;4.608;2023-07-30T00:47:42;8.88;;;1.10;;
23990;SDS011;12205;50.600;4.608;2023-07-30T00:50:10;11.38;;;1.10;;
23990;SDS011;12205;50.600;4.608;2023-07-30T00:52:40;8.65;;;1.17;;
23990;SDS011;12205;50.600;4.608;2023-07-30T00:55:10;11.60;;;1.13;;
23990;SDS011;12205;50.600;4.608;2023-07-30T00:57:38;10.68;;;1.20;;
23990;SDS011;12205;50.600;4.608;2023-07-30T01:00:07;9.82;;;0.95;;
23990;SDS011;12205;50.600;4.608;2023-07-30T01:02:35;6.85;;;0.90;;
23990;SDS011;12205;50.600;4.608;2023-07-30T01:05:03;9.52;;;1.20;;
23990;SDS011;12205;50.600;4.608;2023-07-30T01:07:31;6.15;;;0.95;;
23990;SDS011;12205;50.600;4.608;2023-07-30T01:09:59;14.88;;;1.02;;
23990;SDS011;12205;50.600;4.608;2023-07-30T01:12:29;8.05;;;1.20;;
23990;SDS011;12205;50.600;4.608;2023-07-30T01:14:57;12.85;;;1.40;;
23990;SDS011;12205;50.600;4.608;2023-07-30T01:17:25;13.00;;;1.30;;
23990;SDS011;12205;50.600;4.608;2023-07-30T01:19:53;8.48;;;1.00;;
23990;SDS011;12205;50.600;4.608;2023-07-30T01:22:22;14.43;;;1.33;;
23990;SDS011;12205;50.600;4.608;2023-07-30T01:24:49;6.82;;;1.05;;
23990;SDS011;12205;50.600;4.608;2023-07-30T01:27:19;8.27;;;1.15;;
23990;SDS011;12205;50.600;4.608;2023-07-30T01:29:52;12.43;;;0.93;;
23990;SDS011;12205;50.600;4.608;2023-07-30T01:32:29;6.20;;;0.70;;
23990;SDS011;12205;50.600;4.608;2023-07-30T01:34:58;4.55;;;0.50;;
23990;SDS011;12205;50.600;4.608;2023-07-30T01:37:30;7.30;;;0.65;;
23990;SDS011;12205;50.600;4.608;2023-07-30T01:39:58;7.20;;;0.65;;
23990;SDS011;12205;50.600;4.608;2023-07-30T01:42:28;5.63;;;0.40;;
23990;SDS011;12205;50.600;4.608;2023-07-30T01:44:56;5.70;;;0.63;;
23990;SDS011;12205;50.600;4.608;2023-07-30T01:47:23;5.38;;;0.60;;
23990;SDS011;12205;50.600;4.608;2023-07-30T01:49:50;8.43;;;0.63;;
23990;SDS011;12205;50.600;4.608;2023-07-30T01:52:17;5.10;;;0.63;;
23990;SDS011;12205;50.600;4.608;2023-07-30T01:54:46;5.57;;;0.60;;
23990;SDS011;12205;50.600;4.608;2023-07-30T01:57:13;8.60;;;0.70;;
23990;SDS011;12205;50.600;4.608;2023-07-30T01:59:40;6.63;;;0.50;;
23990;SDS011;12205;50.600;4.608;2023-07-30T02:02:08;6.47;;;0.63;;
23990;SDS011;12205;50.600;4.608;2023-07-30T02:04:35;12.05;;;0.70;;
23990;SDS011;12205;50.600;4.608;2023-07-30T02:07:02;8.25;;;0.80;;
23990;SDS011;12205;50.600;4.608;2023-07-30T02:09:29;4.38;;;0.60;;
23990;SDS011;12205;50.600;4.608;2023-07-30T02:12:00;3.95;;;0.40;;
23990;SDS011;12205;50.600;4.608;2023-07-30T02:14:27;5.28;;;0.60;;
23990;SDS011;12205;50.600;4.608;2023-07-30T02:16:59;7.35;;;0.73;;
23990;SDS011;12205;50.600;4.608;2023-07-30T02:19:26;6.10;;;0.57;;
23990;SDS011;12205;50.600;4.608;2023-07-30T02:21:53;3.83;;;0.38;;
23990;SDS011;12205;50.600;4.608;2023-07-30T02:24:20;3.75;;;0.57;;
23990;SDS011;12205;50.600;4.608;2023-07-30T02:26:47;10.15;;;0.50;;
23990;SDS011;12205;50.600;4.608;2023-07-30T02:29:17;9.30;;;0.70;;
23990;SDS011;12205;50.600;4.608;2023-07-30T02:31:44;3.55;;;0.30;;
23990;SDS011;12205;50.600;4.608;2023-07-30T02:34:11;9.77;;;0.82;;
23990;SDS011;12205;50.600;4.608;2023-07-30T02:36:38;7.07;;;0.90;;
23990;SDS011;12205;50.600;4.608;2023-07-30T02:39:06;8.68;;;0.60;;
23990;SDS011;12205;50.600;4.608;2023-07-30T02:41:33;4.80;;;0.52;;
23990;SDS011;12205;50.600;4.608;2023-07-30T02:44:00;6.05;;;0.57;;
23990;SDS011;12205;50.600;4.608;2023-07-30T02:46:30;5.95;;;0.50;;
23990;SDS011;12205;50.600;4.608;2023-07-30T02:48:57;6.97;;;0.55;;
23990;SDS011;12205;50.600;4.608;2023-07-30T02:51:24;7.03;;;0.80;;
23990;SDS011;12205;50.600;4.608;2023-07-30T02:53:51;7.15;;;0.47;;
23990;SDS011;12205;50.600;4.608;2023-07-30T02:56:22;8.45;;;0.93;;
23990;SDS011;12205;50.600;4.608;2023-07-30T02:58:49;5.93;;;0.60;;
23990;SDS011;12205;50.600;4.608;2023-07-30T03:01:17;4.47;;;0.50;;
23990;SDS011;12205;50.600;4.608;2023-07-30T03:03:46;9.10;;;0.77;;
23990;SDS011;12205;50.600;4.608;2023-07-30T03:06:13;5.45;;;0.45;;
23990;SDS011;12205;50.600;4.608;2023-07-30T03:08:42;8.63;;;0.65;;
23990;SDS011;12205;50.600;4.608;2023-07-30T03:11:09;8.23;;;0.52;;
23990;SDS011;12205;50.600;4.608;2023-07-30T03:13:36;9.30;;;0.73;;
23990;SDS011;12205;50.600;4.608;2023-07-30T03:16:03;10.38;;;0.80;;
23990;SDS011;12205;50.600;4.608;2023-07-30T03:18:30;8.00;;;1.08;;
23990;SDS011;12205;50.600;4.608;2023-07-30T03:20:59;3.75;;;0.35;;
23990;SDS011;12205;50.600;4.608;2023-07-30T03:23:27;8.35;;;1.02;;
23990;SDS011;12205;50.600;4.608;2023-07-30T03:25:54;13.30;;;0.95;;
23990;SDS011;12205;50.600;4.608;2023-07-30T03:28:21;4.18;;;0.45;;
23990;SDS011;12205;50.600;4.608;2023-07-30T03:30:48;6.53;;;0.68;;
23990;SDS011;12205;50.600;4.608;2023-07-30T03:33:15;9.90;;;0.80;;
23990;SDS011;12205;50.600;4.608;2023-07-30T03:35:42;8.38;;;0.77;;
23990;SDS011;12205;50.600;4.608;2023-07-30T03:38:11;7.72;;;0.70;;
23990;SDS011;12205;50.600;4.608;2023-07-30T03:40:38;7.30;;;0.70;;
23990;SDS011;12205;50.600;4.608;2023-07-30T03:43:05;3.30;;;0.50;;
23990;SDS011;12205;50.600;4.608;2023-07-30T03:45:32;5.15;;;0.55;;
23990;SDS011;12205;50.600;4.608;2023-07-30T03:47:59;5.82;;;0.80;;
23990;SDS011;12205;50.600;4.608;2023-07-30T03:50:26;7.47;;;0.70;;
23990;SDS011;12205;50.600;4.608;2023-07-30T03:52:53;10.50;;;0.68;;
23990;SDS011;12205;50.600;4.608;2023-07-30T03:55:22;6.05;;;0.55;;
23990;SDS011;12205;50.600;4.608;2023-07-30T03:57:49;5.68;;;0.90;;
23990;SDS011;12205;50.600;4.608;2023-07-30T04:00:16;8.68;;;0.70;;
23990;SDS011;12205;50.600;4.608;2023-07-30T04:02:43;8.95;;;0.80;;
23990;SDS011;12205;50.600;4.608;2023-07-30T04:05:10;4.40;;;0.80;;
23990;SDS011;12205;50.600;4.608;2023-07-30T04:07:37;7.10;;;0.80;;
23990;SDS011;12205;50.600;4.608;2023-07-30T04:10:05;8.73;;;0.90;;
23990;SDS011;12205;50.600;4.608;2023-07-30T04:12:34;12.75;;;0.50;;
23990;SDS011;12205;50.600;4.608;2023-07-30T04:15:02;6.03;;;0.60;;
23990;SDS011;12205;50.600;4.608;2023-07-30T04:17:30;9.13;;;0.90;;
23990;SDS011;12205;50.600;4.608;2023-07-30T04:19:57;11.55;;;1.33;;
23990;SDS011;12205;50.600;4.608;2023-07-30T04:22:25;3.35;;;0.52;;
23990;SDS011;12205;50.600;4.608;2023-07-30T04:24:52;14.32;;;1.30;;
23990;SDS011;12205;50.600;4.608;2023-07-30T04:27:19;8.30;;;1.02;;
23990;SDS011;12205;50.600;4.608;2023-07-30T04:29:48;8.35;;;0.75;;
23990;SDS011;12205;50.600;4.608;2023-07-30T04:32:15;4.40;;;0.68;;
23990;SDS011;12205;50.600;4.608;2023-07-30T04:34:42;7.35;;;0.68;;
23990;SDS011;12205;50.600;4.608;2023-07-30T04:37:09;8.02;;;0.50;;
23990;SDS011;12205;50.600;4.608;2023-07-30T04:39:36;12.25;;;0.82;;
23990;SDS011;12205;50.600;4.608;2023-07-30T04:42:04;7.40;;;0.80;;
23990;SDS011;12205;50.600;4.608;2023-07-30T04:44:32;14.45;;;0.98;;
23990;SDS011;12205;50.600;4.608;2023-07-30T04:47:08;9.05;;;0.70;;
23990;SDS011;12205;50.600;4.608;2023-07-30T04:49:35;6.88;;;0.57;;
23990;SDS011;12205;50.600;4.608;2023-07-30T04:52:02;5.43;;;0.60;;
23990;SDS011;12205;50.600;4.608;2023-07-30T04:54:30;12.93;;;1.00;;
23990;SDS011;12205;50.600;4.608;2023-07-30T04:56:57;11.70;;;1.15;;
23990;SDS011;12205;50.600;4.608;2023-07-30T04:59:24;10.65;;;1.00;;
23990;SDS011;12205;50.600;4.608;2023-07-30T05:01:51;14.95;;;0.93;;
23990;SDS011;12205;50.600;4.608;2023-07-30T05:04:20;9.68;;;1.05;;
23990;SDS011;12205;50.600;4.608;2023-07-30T05:06:47;9.77;;;1.10;;
23990;SDS011;12205;50.600;4.608;2023-07-30T05:09:14;12.50;;;1.27;;
23990;SDS011;12205;50.600;4.608;2023-07-30T05:11:41;14.40;;;0.88;;
23990;SDS011;12205;50.600;4.608;2023-07-30T05:14:08;16.15;;;1.10;;
23990;SDS011;12205;50.600;4.608;2023-07-30T05:16:35;12.18;;;1.02;;
23990;SDS011;12205;50.600;4.608;2023-07-30T05:19:02;9.88;;;0.73;;
23990;SDS011;12205;50.600;4.608;2023-07-30T05:21:31;9.38;;;0.75;;
23990;SDS011;12205;50.600;4.608;2023-07-30T05:23:58;9.10;;;0.80;;
23990;SDS011;12205;50.600;4.608;2023-07-30T05:26:25;5.72;;;0.80;;
23990;SDS011;12205;50.600;4.608;2023-07-30T05:28:52;9.43;;;0.77;;
23990;SDS011;12205;50.600;4.608;2023-07-30T05:31:19;13.73;;;1.00;;
23990;SDS011;12205;50.600;4.608;2023-07-30T05:33:46;12.90;;;1.23;;
23990;SDS011;12205;50.600;4.608;2023-07-30T05:36:13;10.88;;;1.10;;
23990;SDS011;12205;50.600;4.608;2023-07-30T05:38:42;12.93;;;0.93;;
23990;SDS011;12205;50.600;4.608;2023-07-30T05:41:09;9.25;;;0.80;;
23990;SDS011;12205;50.600;4.608;2023-07-30T05:43:36;9.98;;;1.00;;
23990;SDS011;12205;50.600;4.608;2023-07-30T05:46:03;9.18;;;0.80;;
23990;SDS011;12205;50.600;4.608;2023-07-30T05:48:30;13.07;;;1.20;;
23990;SDS011;12205;50.600;4.608;2023-07-30T05:50:57;12.80;;;1.08;;
23990;SDS011;12205;50.600;4.608;2023-07-30T05:53:25;10.48;;;1.00;;
23990;SDS011;12205;50.600;4.608;2023-07-30T05:55:53;13.45;;;1.10;;
23990;SDS011;12205;50.600;4.608;2023-07-30T05:58:20;9.43;;;1.00;;
23990;SDS011;12205;50.600;4.608;2023-07-30T06:00:47;16.15;;;1.42;;
23990;SDS011;12205;50.600;4.608;2023-07-30T06:03:14;16.08;;;1.60;;
23990;SDS011;12205;50.600;4.608;2023-07-30T06:05:42;17.58;;;1.55;;
23990;SDS011;12205;50.600;4.608;2023-07-30T06:08:09;16.00;;;1.60;;
23990;SDS011;12205;50.600;4.608;2023-07-30T06:10:36;15.77;;;1.30;;
23990;SDS011;12205;50.600;4.608;2023-07-30T06:13:06;15.82;;;1.50;;
23990;SDS011;12205;50.600;4.608;2023-07-30T06:15:33;18.77;;;1.58;;
23990;SDS011;12205;50.600;4.608;2023-07-30T06:18:01;16.27;;;1.75;;
23990;SDS011;12205;50.600;4.608;2023-07-30T06:20:28;16.83;;;2.40;;
23990;SDS011;12205;50.600;4.608;2023-07-30T06:22:55;16.98;;;1.70;;
23990;SDS011;12205;50.600;4.608;2023-07-30T06:25:22;16.63;;;1.67;;
23990;SDS011;12205;50.600;4.608;2023-07-30T06:27:49;11.75;;;0.82;;
23990;SDS011;12205;50.600;4.608;2023-07-30T06:30:18;13.23;;;1.75;;
23990;SDS011;12205;50.600;4.608;2023-07-30T06:32:45;20.27;;;2.00;;
23990;SDS011;12205;50.600;4.608;2023-07-30T06:35:12;19.90;;;1.73;;
23990;SDS011;12205;50.600;4.608;2023-07-30T06:37:39;16.65;;;1.50;;
23990;SDS011;12205;50.600;4.608;2023-07-30T06:40:07;14.25;;;1.23;;
23990;SDS011;12205;50.600;4.608;2023-07-30T06:42:34;12.70;;;1.02;;
23990;SDS011;12205;50.600;4.608;2023-07-30T06:45:01;17.08;;;2.22;;
23990;SDS011;12205;50.600;4.608;2023-07-30T06:47:31;16.02;;;1.60;;
23990;SDS011;12205;50.600;4.608;2023-07-30T06:49:58;10.75;;;1.20;;
23990;SDS011;12205;50.600;4.608;2023-07-30T06:52:25;13.88;;;1.65;;
23990;SDS011;12205;50.600;4.608;2023-07-30T06:54:52;18.23;;;1.45;;
23990;SDS011;12205;50.600;4.608;2023-07-30T06:57:19;19.20;;;1.80;;
23990;SDS011;12205;50.600;4.608;2023-07-30T06:59:46;10.60;;;1.30;;
23990;SDS011;12205;50.600;4.608;2023-07-30T07:02:13;16.95;;;1.30;;
23990;SDS011;12205;50.600;4.608;2023-07-30T07:04:41;10.25;;;1.40;;
23990;SDS011;12205;50.600;4.608;2023-07-30T07:07:09;13.07;;;1.30;;
23990;SDS011;12205;50.600;4.608;2023-07-30T07:09:36;17.90;;;2.05;;
23990;SDS011;12205;50.600;4.608;2023-07-30T07:12:03;16.15;;;1.65;;
23990;SDS011;12205;50.600;4.608;2023-07-30T07:14:32;22.05;;;2.20;;
23990;SDS011;12205;50.600;4.608;2023-07-30T07:16:59;18.63;;;1.50;;
23990;SDS011;12205;50.600;4.608;2023-07-30T07:19:26;20.20;;;1.70;;
23990;SDS011;12205;50.600;4.608;2023-07-30T07:21:55;16.25;;;1.60;;
23990;SDS011;12205;50.600;4.608;2023-07-30T07:24:22;9.85;;;1.02;;
23990;SDS011;12205;50.600;4.608;2023-07-30T07:26:49;16.05;;;1.63;;
23990;SDS011;12205;50.600;4.608;2023-07-30T07:29:16;20.08;;;1.70;;
23990;SDS011;12205;50.600;4.608;2023-07-30T07:31:43;13.25;;;1.15;;
23990;SDS011;12205;50.600;4.608;2023-07-30T07:34:11;13.63;;;1.33;;
23990;SDS011;12205;50.600;4.608;2023-07-30T07:36:38;13.50;;;1.25;;
23990;SDS011;12205;50.600;4.608;2023-07-30T07:39:07;15.05;;;1.15;;
23990;SDS011;12205;50.600;4.608;2023-07-30T07:41:38;9.27;;;0.80;;
23990;SDS011;12205;50.600;4.608;2023-07-30T07:44:05;11.77;;;1.02;;
23990;SDS011;12205;50.600;4.608;2023-07-30T07:46:32;13.70;;;0.98;;
23990;SDS011;12205;50.600;4.608;2023-07-30T07:48:59;10.90;;;1.45;;
23990;SDS011;12205;50.600;4.608;2023-07-30T07:51:26;16.23;;;1.58;;
23990;SDS011;12205;50.600;4.608;2023-07-30T07:53:53;13.38;;;0.93;;
23990;SDS011;12205;50.600;4.608;2023-07-30T07:56:22;11.48;;;1.20;;
23990;SDS011;12205;50.600;4.608;2023-07-30T07:58:49;14.95;;;1.48;;
23990;SDS011;12205;50.600;4.608;2023-07-30T08:01:16;13.80;;;1.00;;
23990;SDS011;12205;50.600;4.608;2023-07-30T08:03:43;14.65;;;1.23;;
23990;SDS011;12205;50.600;4.608;2023-07-30T08:06:11;12.75;;;1.33;;
23990;SDS011;12205;50.600;4.608;2023-07-30T08:08:38;11.48;;;1.17;;
23990;SDS011;12205;50.600;4.608;2023-07-30T08:11:05;11.95;;;1.20;;
23990;SDS011;12205;50.600;4.608;2023-07-30T08:13:34;16.35;;;1.58;;
23990;SDS011;12205;50.600;4.608;2023-07-30T08:16:02;17.15;;;1.63;;
23990;SDS011;12205;50.600;4.608;2023-07-30T08:18:29;17.15;;;1.60;;
23990;SDS011;12205;50.600;4.608;2023-07-30T08:20:56;9.20;;;0.88;;
23990;SDS011;12205;50.600;4.608;2023-07-30T08:23:23;19.67;;;1.83;;
23990;SDS011;12205;50.600;4.608;2023-07-30T08:25:50;11.80;;;1.38;;
23990;SDS011;12205;50.600;4.608;2023-07-30T08:28:18;13.98;;;1.20;;
23990;SDS011;12205;50.600;4.608;2023-07-30T08:30:46;13.73;;;1.48;;
23990;SDS011;12205;50.600;4.608;2023-07-30T08:33:13;14.15;;;1.70;;
23990;SDS011;12205;50.600;4.608;2023-07-30T08:35:40;7.53;;;0.85;;
23990;SDS011;12205;50.600;4.608;2023-07-30T08:38:07;16.30;;;1.30;;
23990;SDS011;12205;50.600;4.608;2023-07-30T08:40:34;6.47;;;0.80;;
23990;SDS011;12205;50.600;4.608;2023-07-30T08:43:02;11.93;;;1.00;;
23990;SDS011;12205;50.600;4.608;2023-07-30T08:45:30;11.90;;;0.95;;
23990;SDS011;12205;50.600;4.608;2023-07-30T08:47:59;10.70;;;1.00;;
23990;SDS011;12205;50.600;4.608;2023-07-30T08:50:26;12.45;;;1.20;;
23990;SDS011;12205;50.600;4.608;2023-07-30T08:52:55;11.80;;;1.00;;
23990;SDS011;12205;50.600;4.608;2023-07-30T08:55:25;14.37;;;1.50;;
23990;SDS011;12205;50.600;4.608;2023-07-30T08:57:55;11.90;;;1.00;;
23990;SDS011;12205;50.600;4.608;2023-07-30T09:00:24;12.05;;;1.05;;
23990;SDS011;12205;50.600;4.608;2023-07-30T09:02:56;8.00;;;0.80;;
23990;SDS011;12205;50.600;4.608;2023-07-30T09:05:27;9.95;;;0.82;;
23990;SDS011;12205;50.600;4.608;2023-07-30T09:07:55;10.48;;;0.98;;
23990;SDS011;12205;50.600;4.608;2023-07-30T09:10:22;13.90;;;1.20;;
23990;SDS011;12205;50.600;4.608;2023-07-30T09:12:52;12.95;;;1.17;;
23990;SDS011;12205;50.600;4.608;2023-07-30T09:15:28;12.55;;;1.15;;
23990;SDS011;12205;50.600;4.608;2023-07-30T09:17:57;12.95;;;1.05;;
23990;SDS011;12205;50.600;4.608;2023-07-30T09:20:26;12.48;;;1.17;;
23990;SDS011;12205;50.600;4.608;2023-07-30T09:22:55;4.18;;;0.57;;
23990;SDS011;12205;50.600;4.608;2023-07-30T09:25:23;8.05;;;1.00;;
23990;SDS011;12205;50.600;4.608;2023-07-30T09:27:50;8.77;;;0.70;;
23990;SDS011;12205;50.600;4.608;2023-07-30T09:30:21;5.22;;;0.77;;
23990;SDS011;12205;50.600;4.608;2023-07-30T09:32:51;11.18;;;0.80;;
23990;SDS011;12205;50.600;4.608;2023-07-30T09:35:20;10.07;;;0.68;;
23990;SDS011;12205;50.600;4.608;2023-07-30T09:40:30;9.52;;;0.80;;
23990;SDS011;12205;50.600;4.608;2023-07-30T09:42:59;11.80;;;1.05;;
23990;SDS011;12205;50.600;4.608;2023-07-30T09:45:28;8.35;;;0.88;;
23990;SDS011;12205;50.600;4.608;2023-07-30T09:48:00;8.05;;;0.80;;
23990;SDS011;12205;50.600;4.608;2023-07-30T09:53:00;11.32;;;0.90;;
23990;SDS011;12205;50.600;4.608;2023-07-30T09:55:28;6.75;;;0.63;;
23990;SDS011;12205;50.600;4.608;2023-07-30T09:57:55;19.67;;;2.03;;
23990;SDS011;12205;50.600;4.608;2023-07-30T10:00:23;4.45;;;0.50;;
23990;SDS011;12205;50.600;4.608;2023-07-30T10:02:51;7.00;;;0.57;;
23990;SDS011;12205;50.600;4.608;2023-07-30T10:05:24;8.57;;;1.02;;
23990;SDS011;12205;50.600;4.608;2023-07-30T10:08:00;6.25;;;0.38;;
23990;SDS011;12205;50.600;4.608;2023-07-30T10:10:34;9.82;;;0.85;;
23990;SDS011;12205;50.600;4.608;2023-07-30T10:13:02;6.50;;;0.60;;
23990;SDS011;12205;50.600;4.608;2023-07-30T10:15:34;10.30;;;0.80;;
23990;SDS011;12205;50.600;4.608;2023-07-30T10:18:04;7.18;;;0.63;;
23990;SDS011;12205;50.600;4.608;2023-07-30T10:20:31;11.00;;;1.08;;
23990;SDS011;12205;50.600;4.608;2023-07-30T10:23:00;8.88;;;0.80;;
23990;SDS011;12205;50.600;4.608;2023-07-30T10:25:30;5.20;;;0.60;;
23990;SDS011;12205;50.600;4.608;2023-07-30T10:28:25;7.53;;;0.90;;
23990;SDS011;12205;50.600;4.608;2023-07-30T10:30:56;5.75;;;0.63;;
23990;SDS011;12205;50.600;4.608;2023-07-30T10:36:13;10.18;;;0.88;;
23990;SDS011;12205;50.600;4.608;2023-07-30T10:38:54;8.85;;;0.95;;
23990;SDS011;12205;50.600;4.608;2023-07-30T10:41:21;4.05;;;0.30;;
23990;SDS011;12205;50.600;4.608;2023-07-30T10:43:49;8.13;;;0.70;;
23990;SDS011;12205;50.600;4.608;2023-07-30T10:46:19;8.98;;;1.10;;
23990;SDS011;12205;50.600;4.608;2023-07-30T10:48:46;7.70;;;0.80;;
23990;SDS011;12205;50.600;4.608;2023-07-30T10:51:15;9.85;;;1.00;;
23990;SDS011;12205;50.600;4.608;2023-07-30T10:53:46;9.73;;;0.60;;
23990;SDS011;12205;50.600;4.608;2023-07-30T10:56:17;6.72;;;0.60;;
23990;SDS011;12205;50.600;4.608;2023-07-30T10:58:48;10.13;;;0.95;;
23990;SDS011;12205;50.600;4.608;2023-07-30T11:01:18;8.57;;;0.60;;
23990;SDS011;12205;50.600;4.608;2023-07-30T11:03:48;10.18;;;0.75;;
23990;SDS011;12205;50.600;4.608;2023-07-30T11:06:20;7.07;;;0.70;;
23990;SDS011;12205;50.600;4.608;2023-07-30T11:08:48;6.05;;;0.60;;
23990;SDS011;12205;50.600;4.608;2023-07-30T11:11:17;9.35;;;0.90;;
23990;SDS011;12205;50.600;4.608;2023-07-30T11:13:45;6.03;;;0.60;;
23990;SDS011;12205;50.600;4.608;2023-07-30T11:16:13;7.50;;;0.75;;
23990;SDS011;12205;50.600;4.608;2023-07-30T11:18:42;4.72;;;0.65;;
23990;SDS011;12205;50.600;4.608;2023-07-30T11:21:13;8.45;;;0.70;;
23990;SDS011;12205;50.600;4.608;2023-07-30T11:23:43;10.68;;;1.08;;
23990;SDS011;12205;50.600;4.608;2023-07-30T11:26:13;9.25;;;0.80;;
23990;SDS011;12205;50.600;4.608;2023-07-30T11:28:44;5.32;;;0.75;;
23990;SDS011;12205;50.600;4.608;2023-07-30T11:31:12;4.38;;;0.70;;
23990;SDS011;12205;50.600;4.608;2023-07-30T11:33:42;6.18;;;0.60;;
23990;SDS011;12205;50.600;4.608;2023-07-30T11:36:12;6.50;;;0.68;;
23990;SDS011;12205;50.600;4.608;2023-07-30T11:38:42;6.60;;;0.73;;
23990;SDS011;12205;50.600;4.608;2023-07-30T11:41:10;6.47;;;0.70;;
23990;SDS011;12205;50.600;4.608;2023-07-30T11:43:39;6.03;;;0.70;;
23990;SDS011;12205;50.600;4.608;2023-07-30T11:46:11;13.85;;;1.40;;
23990;SDS011;12205;50.600;4.608;2023-07-30T11:48:40;10.00;;;0.80;;
23990;SDS011;12205;50.600;4.608;2023-07-30T11:51:19;6.88;;;0.63;;
23990;SDS011;12205;50.600;4.608;2023-07-30T11:53:49;9.82;;;0.90;;
23990;SDS011;12205;50.600;4.608;2023-07-30T11:56:22;6.53;;;0.60;;
23990;SDS011;12205;50.600;4.608;2023-07-30T11:58:53;6.88;;;0.85;;
23990;SDS011;12205;50.600;4.608;2023-07-30T12:01:23;5.55;;;0.77;;
23990;SDS011;12205;50.600;4.608;2023-07-30T12:03:53;8.38;;;0.65;;
23990;SDS011;12205;50.600;4.608;2023-07-30T12:06:22;7.68;;;0.82;;
23990;SDS011;12205;50.600;4.608;2023-07-30T12:08:49;5.75;;;0.70;;
23990;SDS011;12205;50.600;4.608;2023-07-30T12:11:17;5.75;;;0.77;;
23990;SDS011;12205;50.600;4.608;2023-07-30T12:13:46;8.20;;;0.80;;
23990;SDS011;12205;50.600;4.608;2023-07-30T12:16:16;6.40;;;0.75;;
23990;SDS011;12205;50.600;4.608;2023-07-30T12:18:44;6.10;;;0.50;;
23990;SDS011;12205;50.600;4.608;2023-07-30T12:21:11;5.00;;;0.73;;
23990;SDS011;12205;50.600;4.608;2023-07-30T12:23:38;6.75;;;0.70;;
23990;SDS011;12205;50.600;4.608;2023-07-30T12:26:05;9.45;;;0.93;;
23990;SDS011;12205;50.600;4.608;2023-07-30T12:28:33;11.40;;;0.90;;
23990;SDS011;12205;50.600;4.608;2023-07-30T12:31:00;11.68;;;0.90;;
23990;SDS011;12205;50.600;4.608;2023-07-30T12:33:28;11.48;;;0.88;;
23990;SDS011;12205;50.600;4.608;2023-07-30T12:35:55;4.65;;;0.60;;
23990;SDS011;12205;50.600;4.608;2023-07-30T12:38:22;5.80;;;0.63;;
23990;SDS011;12205;50.600;4.608;2023-07-30T12:40:50;7.03;;;0.60;;
23990;SDS011;12205;50.600;4.608;2023-07-30T12:43:17;8.25;;;0.60;;
23990;SDS011;12205;50.600;4.608;2023-07-30T12:45:46;5.15;;;0.57;;
23990;SDS011;12205;50.600;4.608;2023-07-30T12:48:13;9.80;;;0.98;;
23990;SDS011;12205;50.600;4.608;2023-07-30T12:50:42;10.20;;;0.60;;
23990;SDS011;12205;50.600;4.608;2023-07-30T12:53:09;8.80;;;0.60;;
23990;SDS011;12205;50.600;4.608;2023-07-30T12:55:36;9.55;;;0.95;;
23990;SDS011;12205;50.600;4.608;2023-07-30T12:58:04;6.18;;;0.95;;
23990;SDS011;12205;50.600;4.608;2023-07-30T13:00:33;6.05;;;0.73;;
23990;SDS011;12205;50.600;4.608;2023-07-30T13:03:00;2.78;;;0.47;;
23990;SDS011;12205;50.600;4.608;2023-07-30T13:05:27;8.05;;;0.57;;
23990;SDS011;12205;50.600;4.608;2023-07-30T13:07:56;2.70;;;0.30;;
23990;SDS011;12205;50.600;4.608;2023-07-30T13:10:23;5.90;;;0.60;;
23990;SDS011;12205;50.600;4.608;2023-07-30T13:12:50;3.33;;;0.40;;
23990;SDS011;12205;50.600;4.608;2023-07-30T13:15:17;4.00;;;0.40;;
23990;SDS011;12205;50.600;4.608;2023-07-30T13:17:45;5.47;;;0.47;;
23990;SDS011;12205;50.600;4.608;2023-07-30T13:20:12;2.47;;;0.40;;
23990;SDS011;12205;50.600;4.608;2023-07-30T13:22:42;4.60;;;0.80;;
23990;SDS011;12205;50.600;4.608;2023-07-30T13:25:11;4.55;;;0.50;;
23990;SDS011;12205;50.600;4.608;2023-07-30T13:27:38;2.67;;;0.38;;
23990;SDS011;12205;50.600;4.608;2023-07-30T13:30:06;4.18;;;0.50;;
23990;SDS011;12205;50.600;4.608;2023-07-30T13:32:34;4.72;;;0.52;;
23990;SDS011;12205;50.600;4.608;2023-07-30T13:35:01;7.28;;;0.80;;
23990;SDS011;12205;50.600;4.608;2023-07-30T13:37:28;4.07;;;0.70;;
23990;SDS011;12205;50.600;4.608;2023-07-30T13:39:55;6.00;;;0.77;;
23990;SDS011;12205;50.600;4.608;2023-07-30T13:42:24;7.68;;;0.70;;
23990;SDS011;12205;50.600;4.608;2023-07-30T13:44:51;6.70;;;0.80;;
23990;SDS011;12205;50.600;4.608;2023-07-30T13:47:18;6.47;;;0.70;;
23990;SDS011;12205;50.600;4.608;2023-07-30T13:49:45;3.28;;;0.52;;
23990;SDS011;12205;50.600;4.608;2023-07-30T13:52:13;4.50;;;0.63;;
23990;SDS011;12205;50.600;4.608;2023-07-30T13:54:40;5.68;;;0.80;;
23990;SDS011;12205;50.600;4.608;2023-07-30T13:57:10;4.97;;;0.50;;
23990;SDS011;12205;50.600;4.608;2023-07-30T13:59:38;3.83;;;0.60;;
23990;SDS011;12205;50.600;4.608;2023-07-30T14:02:09;3.58;;;0.50;;
23990;SDS011;12205;50.600;4.608;2023-07-30T14:04:36;6.68;;;0.68;;
23990;SDS011;12205;50.600;4.608;2023-07-30T14:07:04;4.82;;;0.63;;
23990;SDS011;12205;50.600;4.608;2023-07-30T14:09:31;4.97;;;0.80;;
23990;SDS011;12205;50.600;4.608;2023-07-30T14:12:01;4.32;;;0.60;;
23990;SDS011;12205;50.600;4.608;2023-07-30T14:14:28;2.55;;;0.45;;
23990;SDS011;12205;50.600;4.608;2023-07-30T14:16:57;4.20;;;0.63;;
23990;SDS011;12205;50.600;4.608;2023-07-30T14:19:25;7.80;;;0.50;;
23990;SDS011;12205;50.600;4.608;2023-07-30T14:21:54;5.07;;;0.57;;
23990;SDS011;12205;50.600;4.608;2023-07-30T14:24:21;8.77;;;0.90;;
23990;SDS011;12205;50.600;4.608;2023-07-30T14:26:48;4.05;;;0.50;;
23990;SDS011;12205;50.600;4.608;2023-07-30T14:29:15;8.23;;;1.00;;
23990;SDS011;12205;50.600;4.608;2023-07-30T14:31:43;6.38;;;0.70;;
23990;SDS011;12205;50.600;4.608;2023-07-30T14:34:11;5.45;;;0.70;;
23990;SDS011;12205;50.600;4.608;2023-07-30T14:36:39;4.80;;;0.40;;
23990;SDS011;12205;50.600;4.608;2023-07-30T14:39:06;5.03;;;0.60;;
23990;SDS011;12205;50.600;4.608;2023-07-30T14:41:33;7.97;;;0.55;;
23990;SDS011;12205;50.600;4.608;2023-07-30T14:44:00;6.80;;;0.77;;
23990;SDS011;12205;50.600;4.608;2023-07-30T14:46:28;7.65;;;0.65;;
23990;SDS011;12205;50.600;4.608;2023-07-30T14:48:55;6.45;;;0.60;;
23990;SDS011;12205;50.600;4.608;2023-07-30T14:51:23;8.75;;;0.90;;
23990;SDS011;12205;50.600;4.608;2023-07-30T14:53:50;6.22;;;0.85;;
23990;SDS011;12205;50.600;4.608;2023-07-30T14:56:18;3.83;;;0.65;;